Time;durP1;ratioP1;P1;durP2;ratioP2;P2;SDS_P1;SDS_P2;PMS_P1;PMS_P2;Temp;Humidity;BMP_temperature;BMP_pressure;BME280_temperature;BME280_humidity;BME280_pressure;Samples;Min_cycle;Max_cycle;Signal;HPM_P1;HPM_P2
2021/01/11 00:01:29;;;;;;;80.78;40.50;;;-1.10;90.50;;;;;;5136507;27;20528;-76
2021/01/11 00:03:55;;;;;;;71.07;35.78;;;-1.30;90.50;;;;;;5136450;27;20039;-76
2021/01/11 00:06:21;;;;;;;73.13;35.75;;;-1.30;90.60;;;;;;5134791;27;20473;-76
2021/01/11 00:08:47;;;;;;;75.20;36.67;;;-1.40;90.60;;;;;;5134840;27;20030;-76
2021/01/11 00:11:20;;;;;;;75.45;35.92;;;-1.50;90.60;;;;;;5152303;27;20030;-76
2021/01/11 00:13:46;;;;;;;95.97;42.83;;;-1.50;90.60;;;;;;5135235;27;20511;-76
2021/01/11 00:16:11;;;;;;;81.43;37.97;;;-1.60;90.50;;;;;;5135875;27;20103;-76
2021/01/11 00:18:40;;;;;;;78.78;35.40;;;-1.70;90.50;;;;;;5169344;27;20098;-76
2021/01/11 00:21:06;;;;;;;71.93;34.47;;;-1.80;90.60;;;;;;5136069;27;20380;-76
2021/01/11 00:23:33;;;;;;;74.38;35.78;;;-1.80;90.60;;;;;;5136066;27;20054;-76
2021/01/11 00:25:59;;;;;;;81.78;39.95;;;-1.90;90.70;;;;;;5135786;27;20020;-76
2021/01/11 00:28:25;;;;;;;79.78;37.08;;;-1.90;90.70;;;;;;5134543;27;20028;-76
2021/01/11 00:30:51;;;;;;;80.85;38.03;;;-2.00;90.70;;;;;;5135778;27;20072;-76
2021/01/11 00:33:16;;;;;;;92.78;42.97;;;-2.00;90.80;;;;;;5169475;27;20095;-76
2021/01/11 00:35:42;;;;;;;91.88;41.13;;;-2.00;90.70;;;;;;5134698;27;20384;-76
2021/01/11 00:38:09;;;;;;;90.45;41.17;;;-2.10;90.70;;;;;;5134274;27;20028;-76
2021/01/11 00:40:35;;;;;;;93.40;41.63;;;-2.10;90.80;;;;;;5135982;27;20076;-76
2021/01/11 00:43:00;;;;;;;103.53;49.05;;;-2.10;90.80;;;;;;5133940;27;20023;-76
2021/01/11 00:45:26;;;;;;;90.18;43.95;;;-2.10;90.90;;;;;;5133909;27;20027;-76
2021/01/11 00:47:52;;;;;;;92.90;41.65;;;-2.20;90.90;;;;;;5135220;27;20081;-76
2021/01/11 00:50:17;;;;;;;91.05;40.15;;;-2.10;91.20;;;;;;5168631;27;20062;-76
2021/01/11 00:52:44;;;;;;;92.88;41.80;;;-2.10;91.00;;;;;;5168461;27;20027;-76
2021/01/11 00:55:11;;;;;;;84.38;38.00;;;-2.10;91.00;;;;;;5135217;27;20031;-76
2021/01/11 00:57:37;;;;;;;97.93;41.40;;;-2.10;91.00;;;;;;5135056;27;20030;-77
2021/01/11 01:00:07;;;;;;;79.30;35.55;;;-2.10;91.00;;;;;;5168394;27;20027;-77
2021/01/11 01:02:33;;;;;;;74.25;31.98;;;-2.10;91.10;;;;;;5133374;27;20015;-77
2021/01/11 01:04:59;;;;;;;75.47;33.42;;;-2.10;91.10;;;;;;5132911;27;20034;-76
2021/01/11 01:07:24;;;;;;;72.13;32.63;;;-2.10;91.10;;;;;;5151097;27;20030;-76
2021/01/11 01:09:50;;;;;;;79.90;36.05;;;-2.10;91.00;;;;;;5134799;27;20023;-76
2021/01/11 01:12:16;;;;;;;71.50;33.28;;;-2.10;91.10;;;;;;5134703;27;20023;-76
2021/01/11 01:14:42;;;;;;;77.07;34.90;;;-2.20;91.00;;;;;;5134795;27;20084;-76
2021/01/11 01:17:07;;;;;;;69.90;32.42;;;-2.20;91.00;;;;;;5135044;27;20439;-76
2021/01/11 01:19:33;;;;;;;74.88;34.33;;;-2.30;90.90;;;;;;5168034;27;20030;-77
2021/01/11 01:21:58;;;;;;;71.07;32.22;;;-2.30;90.90;;;;;;5133599;27;20123;-77
2021/01/11 01:24:26;;;;;;;76.60;33.95;;;-2.40;90.90;;;;;;5134960;27;20517;-77
2021/01/11 01:26:52;;;;;;;66.90;31.48;;;-2.40;90.90;;;;;;5116161;27;20083;-77
2021/01/11 01:29:17;;;;;;;66.88;31.85;;;-2.50;90.90;;;;;;5116503;27;20031;-76
2021/01/11 01:31:43;;;;;;;67.65;30.77;;;-2.50;90.90;;;;;;5134509;27;20481;-77
2021/01/11 01:34:09;;;;;;;67.18;32.80;;;-2.60;90.90;;;;;;5133642;27;20023;-77
2021/01/11 01:36:34;;;;;;;71.70;34.42;;;-2.50;90.90;;;;;;5167975;27;20038;-77
2021/01/11 01:39:00;;;;;;;75.70;35.10;;;-2.60;90.90;;;;;;5134352;27;20035;-77
2021/01/11 01:41:26;;;;;;;84.47;37.55;;;-2.50;91.00;;;;;;5134418;27;20102;-77
2021/01/11 01:43:51;;;;;;;73.57;34.75;;;-2.50;91.00;;;;;;5133517;27;20472;-77
2021/01/11 01:46:21;;;;;;;76.28;35.13;;;-2.50;91.00;;;;;;5134317;28;20019;-77
2021/01/11 01:48:48;;;;;;;85.43;37.22;;;-2.50;91.10;;;;;;5134438;27;20103;-77
2021/01/11 01:51:16;;;;;;;84.72;38.75;;;-2.40;91.10;;;;;;5133165;28;20027;-77
2021/01/11 01:53:44;;;;;;;62.95;27.67;;;-2.30;91.40;;;;;;5133469;28;20024;-77
2021/01/11 01:56:11;;;;;;;60.20;27.25;;;-2.20;91.30;;;;;;5134793;27;20034;-77
2021/01/11 01:58:37;;;;;;;53.80;24.75;;;-2.10;91.40;;;;;;5134379;27;20495;-77
2021/01/11 02:01:03;;;;;;;44.55;22.58;;;-1.90;91.80;;;;;;5133280;28;20380;-77
2021/01/11 02:03:29;;;;;;;46.33;22.48;;;-1.80;91.50;;;;;;5134346;27;20027;-77
2021/01/11 02:05:54;;;;;;;45.30;22.63;;;-1.60;91.20;;;;;;5133168;28;20059;-76
2021/01/11 02:08:23;;;;;;;49.33;23.90;;;-1.50;91.20;;;;;;5134181;27;20023;-76
2021/01/11 02:11:02;;;;;;;42.60;21.67;;;-1.40;91.00;;;;;;5133058;28;20027;-76
2021/01/11 02:13:35;;;;;;;36.55;19.05;;;-1.30;91.00;;;;;;5133058;28;20380;-77
2021/01/11 02:16:12;;;;;;;33.90;18.52;;;-1.20;90.80;;;;;;5136276;27;20160;-76
2021/01/11 02:19:15;;;;;;;42.03;21.90;;;-1.10;90.70;;;;;;5137169;27;20030;-76
2021/01/11 02:22:02;;;;;;;43.20;22.95;;;-1.00;90.60;;;;;;5137210;27;20125;-76
2021/01/11 02:25:07;;;;;;;36.90;20.65;;;-1.00;90.40;;;;;;5138643;27;20342;-76
2021/01/11 02:27:47;;;;;;;36.00;19.67;;;-1.00;89.90;;;;;;5138347;27;20027;-76
2021/01/11 02:30:25;;;;;;;31.13;17.10;;;-1.00;89.50;;;;;;5136064;27;20066;-76
2021/01/11 02:32:56;;;;;;;26.85;14.88;;;-1.00;90.00;;;;;;5137220;27;20030;-76
2021/01/11 02:35:22;;;;;;;27.45;14.93;;;-0.90;90.00;;;;;;5138474;27;20022;-76
2021/01/11 02:37:49;;;;;;;25.02;14.45;;;-0.90;90.00;;;;;;5136687;27;20120;-76
2021/01/11 02:40:15;;;;;;;19.45;11.77;;;-0.90;89.40;;;;;;5137090;27;20094;-76
2021/01/11 02:42:40;;;;;;;27.30;17.92;;;-0.80;89.50;;;;;;5153826;27;20564;-76
2021/01/11 02:45:09;;;;;;;31.63;17.23;;;-0.80;89.10;;;;;;5137758;27;20072;-76
2021/01/11 02:48:02;;;;;;;20.77;12.25;;;-0.70;89.10;;;;;;5135950;27;20463;-76
2021/01/11 02:50:29;;;;;;;21.27;11.10;;;-0.70;89.10;;;;;;5136545;27;20020;-76
2021/01/11 02:53:20;;;;;;;28.85;13.82;;;-0.60;89.10;;;;;;5138372;27;20031;-76
2021/01/11 02:55:54;;;;;;;25.10;14.88;;;-0.60;88.20;;;;;;5129380;27;20035;-76
2021/01/11 02:58:53;;;;;;;24.05;13.15;;;-0.70;87.30;;;;;;5137561;27;20106;-76
2021/01/11 03:01:20;;;;;;;20.30;11.68;;;-0.60;88.50;;;;;;5136382;27;20023;-76
2021/01/11 03:03:50;;;;;;;18.65;11.13;;;-0.70;88.40;;;;;;5137327;27;20027;-76
2021/01/11 03:06:16;;;;;;;20.48;11.32;;;-0.60;88.40;;;;;;5136626;27;20139;-76
2021/01/11 03:08:43;;;;;;;17.80;10.63;;;-0.60;88.50;;;;;;5137184;27;20392;-76
2021/01/11 03:11:09;;;;;;;22.08;12.15;;;-0.50;88.30;;;;;;5136243;27;20058;-76
2021/01/11 03:13:35;;;;;;;21.52;11.95;;;-0.50;88.50;;;;;;5135796;27;20059;-76
2021/01/11 03:16:01;;;;;;;21.90;12.82;;;-0.40;88.50;;;;;;5137746;27;20027;-76
2021/01/11 03:18:26;;;;;;;32.90;17.45;;;-0.40;88.20;;;;;;5135471;27;20488;-76
2021/01/11 03:20:52;;;;;;;23.33;12.48;;;-0.50;87.00;;;;;;5170387;27;20472;-76
2021/01/11 03:23:18;;;;;;;17.85;10.55;;;-0.40;88.00;;;;;;5137182;27;20053;-76
2021/01/11 03:25:43;;;;;;;18.75;10.48;;;-0.50;87.40;;;;;;5170403;27;20556;-76
2021/01/11 03:28:09;;;;;;;17.75;12.05;;;-0.40;87.50;;;;;;5136357;27;20082;-76
2021/01/11 03:30:35;;;;;;;22.67;13.32;;;-0.40;87.40;;;;;;5137027;27;20019;-75
2021/01/11 03:33:01;;;;;;;24.35;13.40;;;-0.40;87.50;;;;;;5136692;27;20027;-76
2021/01/11 03:35:28;;;;;;;21.65;12.30;;;-0.40;87.50;;;;;;5118964;27;20039;-76
2021/01/11 03:37:54;;;;;;;18.13;11.80;;;-0.40;87.00;;;;;;5153402;27;20035;-76
2021/01/11 03:40:20;;;;;;;16.52;10.23;;;-0.40;86.10;;;;;;5136903;27;20027;-76
2021/01/11 03:42:45;;;;;;;17.58;10.65;;;-0.40;86.70;;;;;;5135244;27;20552;-76
2021/01/11 03:45:12;;;;;;;16.70;11.13;;;-0.40;86.90;;;;;;5135657;27;20037;-75
2021/01/11 03:47:39;;;;;;;18.75;11.70;;;-0.40;86.70;;;;;;5135225;27;20051;-76
2021/01/11 03:50:05;;;;;;;20.25;12.23;;;-0.40;87.10;;;;;;5135446;27;20024;-76
2021/01/11 03:52:38;;;;;;;18.75;11.52;;;-0.40;87.40;;;;;;5135863;27;20023;-76
2021/01/11 03:55:05;;;;;;;18.85;12.25;;;-0.30;87.70;;;;;;5152570;27;20019;-76
2021/01/11 03:57:31;;;;;;;20.08;11.45;;;-0.30;87.60;;;;;;5136543;27;20019;-76
2021/01/11 03:59:57;;;;;;;22.30;13.25;;;-0.30;87.70;;;;;;5135182;27;20027;-76
2021/01/11 04:02:23;;;;;;;20.92;12.27;;;-0.30;87.70;;;;;;5155162;27;20019;-76
2021/01/11 04:04:49;;;;;;;19.88;12.15;;;-0.20;87.70;;;;;;5155434;27;20019;-76
2021/01/11 04:07:15;;;;;;;21.70;12.27;;;-0.20;87.50;;;;;;5155862;27;20030;-76
2021/01/11 04:09:41;;;;;;;20.08;11.50;;;-0.20;87.20;;;;;;5155686;27;20041;-76
2021/01/11 04:12:07;;;;;;;20.30;12.50;;;-0.20;87.10;;;;;;5156792;27;20031;-76
2021/01/11 04:14:33;;;;;;;24.42;14.98;;;-0.20;87.20;;;;;;5156871;27;20027;-76
2021/01/11 04:16:59;;;;;;;27.48;16.20;;;-0.20;87.30;;;;;;5155059;27;20079;-75
2021/01/11 04:19:25;;;;;;;26.70;15.52;;;-0.20;87.30;;;;;;5155456;27;20022;-76
2021/01/11 04:21:50;;;;;;;23.65;14.48;;;-0.10;87.30;;;;;;5155447;27;20515;-76
2021/01/11 04:24:16;;;;;;;22.27;14.25;;;-0.10;87.30;;;;;;5156504;27;20023;-76
2021/01/11 04:26:45;;;;;;;24.70;14.30;;;-0.10;87.20;;;;;;5155472;27;20027;-76
2021/01/11 04:29:11;;;;;;;20.88;12.60;;;-0.20;86.80;;;;;;5155702;27;20417;-76
2021/01/11 04:31:37;;;;;;;22.13;12.93;;;-0.20;87.00;;;;;;5140980;27;20027;-76
2021/01/11 04:34:03;;;;;;;21.23;11.68;;;-0.20;87.00;;;;;;5135949;27;20027;-76
2021/01/11 04:36:32;;;;;;;23.80;13.18;;;-0.20;86.80;;;;;;5134368;27;20143;-76
2021/01/11 04:38:58;;;;;;;21.92;11.70;;;-0.20;86.70;;;;;;5134516;27;20023;-75
2021/01/11 04:41:26;;;;;;;21.00;12.00;;;-0.20;86.80;;;;;;5134023;27;20062;-76
2021/01/11 04:43:54;;;;;;;18.80;11.40;;;-0.20;86.80;;;;;;5134165;27;20109;-75
2021/01/11 04:46:21;;;;;;;40.17;18.33;;;-0.20;86.70;;;;;;5121317;27;20038;-76
2021/01/11 04:48:47;;;;;;;31.10;14.88;;;-0.20;86.70;;;;;;5113717;28;20485;-76
2021/01/11 04:51:13;;;;;;;33.05;18.27;;;-0.30;86.80;;;;;;5114913;28;20030;-76
2021/01/11 04:53:44;;;;;;;31.15;17.63;;;-0.30;86.90;;;;;;5113745;28;20441;-75
2021/01/11 04:56:11;;;;;;;;;;;-0.30;86.70;;;;;;5114378;28;20050;-76
2021/01/11 04:58:59;;;;;;;26.50;14.95;;;-0.40;86.10;;;;;;5147940;27;19934;-76
2021/01/11 05:01:27;;;;;;;24.58;13.73;;;-0.40;86.10;;;;;;5113499;28;20065;-76
2021/01/11 05:03:58;;;;;;;25.67;13.50;;;-0.50;86.40;;;;;;5114638;28;20051;-76
2021/01/11 05:06:25;;;;;;;22.55;12.15;;;-0.60;86.60;;;;;;5114587;28;20057;-75
2021/01/11 05:08:50;;;;;;;22.88;12.40;;;-0.50;86.60;;;;;;5113485;28;20058;-76
2021/01/11 05:11:16;;;;;;;24.85;13.85;;;-0.60;86.60;;;;;;5114935;28;20434;-76
2021/01/11 05:13:49;;;;;;;26.00;13.73;;;-0.60;86.20;;;;;;5114552;28;20031;-80
2021/01/11 05:16:16;;;;;;;25.17;14.38;;;-0.60;86.50;;;;;;5096874;28;20039;-79
2021/01/11 05:18:42;;;;;;;23.60;13.43;;;-0.70;86.20;;;;;;5115352;28;20028;-79
2021/01/11 05:21:09;;;;;;;21.83;12.50;;;-0.70;86.20;;;;;;5122183;27;20019;-79
2021/01/11 05:23:39;;;;;;;29.08;15.27;;;-0.70;86.40;;;;;;5135290;27;20050;-78
2021/01/11 05:26:15;;;;;;;31.30;16.88;;;-0.70;86.40;;;;;;5134994;27;20019;-79
2021/01/11 05:28:42;;;;;;;59.20;30.05;;;-0.70;86.50;;;;;;5134822;27;20023;-79
2021/01/11 05:31:09;;;;;;;66.07;32.60;;;-0.70;86.00;;;;;;5133738;27;20027;-78
2021/01/11 05:33:35;;;;;;;49.08;25.52;;;-0.60;86.50;;;;;;5134565;27;20031;-78
2021/01/11 05:36:12;;;;;;;33.75;20.13;;;-0.70;86.30;;;;;;5121980;27;20024;-78
2021/01/11 05:38:51;;;;;;;24.58;13.45;;;-0.60;86.50;;;;;;5112813;28;20024;-78
2021/01/11 05:41:18;;;;;;;26.85;13.75;;;-0.60;86.40;;;;;;5112256;28;20373;-78
2021/01/11 05:44:06;;;;;;;24.02;12.70;;;-0.60;85.90;;;;;;5146498;27;20023;-78
2021/01/11 05:46:32;;;;;;;21.02;11.75;;;-0.60;85.70;;;;;;5113109;28;20035;-78
2021/01/11 05:49:09;;;;;;;25.35;12.65;;;-0.70;85.50;;;;;;5131090;27;20051;-78
2021/01/11 05:51:37;;;;;;;18.73;10.65;;;-0.70;85.90;;;;;;5134064;28;20043;-78
2021/01/11 05:54:05;;;;;;;18.02;10.13;;;-0.70;85.80;;;;;;5134534;27;20027;-78
2021/01/11 05:56:57;;;;;;;15.43;8.82;;;-0.70;86.10;;;;;;5134480;27;20027;-78
2021/01/11 05:59:24;;;;;;;19.90;10.38;;;-0.70;86.20;;;;;;5134467;27;20030;-78
2021/01/11 06:01:50;;;;;;;19.10;9.32;;;-0.70;86.10;;;;;;5134116;27;20027;-78
2021/01/11 06:04:16;;;;;;;29.58;14.15;;;-0.60;86.30;;;;;;5134242;27;20031;-78
2021/01/11 06:06:42;;;;;;;29.60;15.00;;;-0.60;85.50;;;;;;5115549;28;20084;-78
2021/01/11 06:09:08;;;;;;;34.40;18.10;;;-0.70;85.70;;;;;;5132946;28;20027;-78
2021/01/11 06:11:37;;;;;;;30.38;18.27;;;-0.60;85.60;;;;;;5134317;27;20487;-78
2021/01/11 06:14:05;;;;;;;30.10;15.65;;;-0.70;85.40;;;;;;5134097;28;20031;-78
2021/01/11 06:16:32;;;;;;;22.63;13.25;;;-0.70;85.50;;;;;;5134409;27;20023;-77
2021/01/11 06:18:58;;;;;;;20.00;11.80;;;-0.80;85.50;;;;;;5134159;27;20024;-77
2021/01/11 06:21:24;;;;;;;20.48;12.65;;;-0.70;85.70;;;;;;5132735;28;20028;-77
2021/01/11 06:24:14;;;;;;;19.92;10.50;;;-0.70;84.80;;;;;;5134235;27;20027;-77
2021/01/11 06:26:40;;;;;;;;;;;-0.80;85.10;;;;;;5133290;28;20019;-77
2021/01/11 06:29:27;;;;;;;15.93;9.57;;;-0.80;84.70;;;;;;5133063;28;19903;-77
2021/01/11 06:32:16;;;;;;;19.08;10.57;;;-0.80;85.20;;;;;;5167208;27;20075;-77
2021/01/11 06:34:42;;;;;;;18.38;10.43;;;-0.90;85.00;;;;;;5132904;28;20112;-77
2021/01/11 06:37:20;;;;;;;18.02;10.57;;;-0.90;85.20;;;;;;5133998;27;20506;-77
2021/01/11 06:39:48;;;;;;;18.85;10.68;;;-0.90;85.50;;;;;;5133649;27;20023;-77
2021/01/11 06:42:15;;;;;;;20.83;11.52;;;-1.00;85.30;;;;;;5132235;28;20034;-77
2021/01/11 06:44:47;;;;;;;23.25;13.35;;;-1.00;85.60;;;;;;5133928;27;20076;-77
2021/01/11 06:47:35;;;;;;;27.20;15.60;;;-1.10;85.30;;;;;;5132583;28;20027;-78
2021/01/11 06:50:09;;;;;;;28.65;17.20;;;-1.10;85.30;;;;;;5134154;28;20035;-78
2021/01/11 06:52:36;;;;;;;28.92;16.58;;;-1.10;85.40;;;;;;5132691;28;20046;-77
2021/01/11 06:55:13;;;;;;;31.65;16.35;;;-1.10;85.70;;;;;;5115646;28;20031;-77
2021/01/11 06:57:39;;;;;;;22.95;12.50;;;-1.10;85.90;;;;;;5132325;28;20025;-77
2021/01/11 07:00:08;;;;;;;22.40;12.82;;;-1.10;86.10;;;;;;5134118;27;20399;-77
2021/01/11 07:02:41;;;;;;;55.65;29.50;;;-1.10;86.00;;;;;;5134158;27;20061;-77
2021/01/11 07:05:27;;;;;;;55.33;29.13;;;-1.10;85.90;;;;;;5153576;27;20027;-77
2021/01/11 07:08:01;;;;;;;54.95;26.23;;;-1.10;85.40;;;;;;5137158;27;20053;-78
2021/01/11 07:10:27;;;;;;;55.67;24.40;;;-1.10;85.70;;;;;;5136068;27;20055;-77
2021/01/11 07:13:23;;;;;;;44.83;19.27;;;-1.10;85.10;;;;;;5136266;27;20058;-80
2021/01/11 07:15:53;;;;;;;64.65;34.40;;;-1.10;83.80;;;;;;5136212;27;20188;-78
2021/01/11 07:18:40;;;;;;;32.28;16.33;;;-1.10;84.40;;;;;;5135911;27;20028;-78
2021/01/11 07:21:14;;;;;;;26.85;13.45;;;-1.10;85.00;;;;;;5137094;27;20533;-79
2021/01/11 07:23:42;;;;;;;43.60;21.40;;;-1.10;85.00;;;;;;5137033;27;20473;-77
2021/01/11 07:26:15;;;;;;;37.20;18.88;;;-1.10;84.30;;;;;;5132761;27;20042;-76
2021/01/11 07:28:56;;;;;;;24.65;13.90;;;-1.00;84.40;;;;;;5112500;28;20034;-81
2021/01/11 07:31:27;;;;;;;23.95;12.48;;;-1.10;83.90;;;;;;5118895;28;20024;-80
2021/01/11 07:34:01;;;;;;;21.48;11.15;;;-1.10;84.20;;;;;;5115498;28;20031;-82
2021/01/11 07:36:28;;;;;;;13.07;7.75;;;-1.10;83.70;;;;;;5116483;28;20565;-82
2021/01/11 07:39:30;;;;;;;14.70;8.38;;;-1.00;84.00;;;;;;5114976;28;20499;-81
2021/01/11 07:42:04;;;;;;;13.43;8.13;;;-1.10;82.10;;;;;;5079273;28;20567;-83
2021/01/11 07:44:36;;;;;;;21.20;12.82;;;-1.10;82.90;;;;;;5115430;28;20077;-83
2021/01/11 07:47:12;;;;;;;13.10;7.35;;;-1.00;83.70;;;;;;5114888;28;20020;-82
2021/01/11 07:49:41;;;;;;;10.55;7.30;;;-1.00;83.90;;;;;;5115123;28;20153;-82
2021/01/11 07:52:12;;;;;;;13.20;6.90;;;-0.90;83.70;;;;;;5098077;28;20035;-82
2021/01/11 07:54:39;;;;;;;;;;;-0.90;84.30;;;;;;5116559;28;20123;-83
2021/01/11 07:57:10;;;;;;;11.07;6.80;;;-0.80;82.60;;;;;;5116387;28;19904;-81
2021/01/11 07:59:36;;;;;;;12.52;7.50;;;-0.90;82.50;;;;;;5114677;28;20038;-81
2021/01/11 08:02:08;;;;;;;11.73;7.03;;;-0.90;82.60;;;;;;5114686;28;20034;-83
2021/01/11 08:04:36;;;;;;;13.55;7.97;;;-0.80;82.50;;;;;;5114186;28;20026;-81
2021/01/11 08:07:09;;;;;;;16.42;10.32;;;-0.80;83.40;;;;;;5115801;28;20024;-81
2021/01/11 08:09:36;;;;;;;15.13;9.07;;;-0.80;83.20;;;;;;5131792;27;20028;-81
2021/01/11 08:12:11;;;;;;;13.57;6.90;;;-0.80;82.20;;;;;;5115832;28;20094;-81
2021/01/11 08:14:39;;;;;;;13.75;8.10;;;-0.70;83.00;;;;;;5115664;27;20050;-81
2021/01/11 08:17:11;;;;;;;17.00;9.98;;;-0.70;82.70;;;;;;5097951;28;20062;-81
2021/01/11 08:19:40;;;;;;;13.20;7.90;;;-0.70;82.70;;;;;;5115504;28;20449;-81
2021/01/11 08:22:10;;;;;;;12.50;7.78;;;-0.70;82.60;;;;;;5114629;28;20043;-81
2021/01/11 08:24:36;;;;;;;13.80;6.45;;;-0.60;81.50;;;;;;5114447;28;20024;-81
2021/01/11 08:27:06;;;;;;;125.75;53.17;;;-0.70;82.20;;;;;;5114057;28;20015;-81
2021/01/11 08:29:38;;;;;;;28.10;14.00;;;-0.70;81.40;;;;;;5114005;28;20100;-81
2021/01/11 08:32:12;;;;;;;19.30;9.48;;;-0.70;82.10;;;;;;5097355;28;20023;-81
2021/01/11 08:34:40;;;;;;;16.10;8.95;;;-0.60;82.50;;;;;;5115447;28;20030;-80
2021/01/11 08:37:32;;;;;;;15.80;9.30;;;-0.50;82.70;;;;;;5114083;28;20034;-81
2021/01/11 08:40:00;;;;;;;16.23;9.65;;;-0.50;82.10;;;;;;5113921;28;20058;-81
2021/01/11 08:42:27;;;;;;;16.05;10.02;;;-0.60;82.20;;;;;;5113417;28;20028;-81
2021/01/11 08:44:54;;;;;;;15.63;9.10;;;-0.50;82.20;;;;;;5115249;28;20016;-83
2021/01/11 08:47:37;;;;;;;14.57;9.55;;;-0.40;82.40;;;;;;5113682;28;20043;-83
2021/01/11 08:50:05;;;;;;;16.92;10.98;;;-0.40;82.20;;;;;;5114291;28;20115;-85
2021/01/11 08:52:34;;;;;;;13.93;8.68;;;-0.40;81.30;;;;;;5114123;28;20053;-86
2021/01/11 08:55:14;;;;;;;17.77;9.57;;;-0.50;81.30;;;;;;5114135;28;20553;-84
2021/01/11 08:57:40;;;;;;;;;;;-0.50;81.40;;;;;;5114351;28;20035;-85
2021/01/11 09:00:10;;;;;;;27.95;16.38;;;-0.50;81.00;;;;;;5114290;28;19904;-84
2021/01/11 09:02:54;;;;;;;21.58;12.82;;;-0.50;81.80;;;;;;5114388;28;20030;-88
2021/01/11 09:05:23;;;;;;;21.45;14.07;;;-0.50;81.80;;;;;;5113784;28;20031;-89
2021/01/11 09:07:57;;;;;;;17.15;9.93;;;-0.50;81.50;;;;;;5097872;28;20092;-88
2021/01/11 09:10:34;;;;;;;15.75;8.88;;;-0.50;81.00;;;;;;5114401;28;20024;-87
2021/01/11 09:13:19;;;;;;;18.20;9.45;;;-0.50;82.10;;;;;;5129799;27;20027;-88
2021/01/11 09:15:47;;;;;;;16.33;8.95;;;-0.40;81.30;;;;;;5113985;28;20027;-87
2021/01/11 09:18:14;;;;;;;14.65;8.73;;;-0.40;82.00;;;;;;5114084;28;20054;-87
2021/01/11 09:20:45;;;;;;;17.85;12.07;;;-0.30;82.00;;;;;;5097149;28;20388;-87
2021/01/11 09:23:11;;;;;;;15.55;9.05;;;-0.30;80.80;;;;;;5131281;27;20020;-86
2021/01/11 09:25:40;;;;;;;16.23;9.68;;;-0.20;81.70;;;;;;5096307;28;20031;-87
2021/01/11 09:28:10;;;;;;;17.88;10.13;;;-0.20;80.50;;;;;;5097264;28;20032;-87
2021/01/11 09:30:37;;;;;;;24.65;15.30;;;-0.20;80.10;;;;;;5113510;28;20094;-84
2021/01/11 09:33:05;;;;;;;19.27;11.63;;;-0.20;80.70;;;;;;5115272;28;20023;-86
2021/01/11 09:35:32;;;;;;;19.45;11.70;;;-0.10;81.10;;;;;;5114113;28;20027;-86
2021/01/11 09:37:58;;;;;;;21.70;13.25;;;-0.10;79.90;;;;;;5113874;28;20028;-83
2021/01/11 09:40:24;;;;;;;20.25;12.93;;;-0.10;80.40;;;;;;5113579;28;20096;-88
2021/01/11 09:42:51;;;;;;;16.65;10.55;;;0.00;80.40;;;;;;5113627;28;20049;-87
2021/01/11 09:45:18;;;;;;;22.67;12.93;;;0.10;80.90;;;;;;5114350;28;20500;-88
2021/01/11 09:47:44;;;;;;;19.33;11.10;;;0.10;80.20;;;;;;5114436;28;20048;-86
2021/01/11 09:50:16;;;;;;;17.05;10.50;;;0.10;80.30;;;;;;5113119;28;20039;-85
2021/01/11 09:52:43;;;;;;;14.90;9.57;;;0.10;79.90;;;;;;5113130;28;20484;-86
2021/01/11 09:55:12;;;;;;;13.57;9.05;;;0.20;80.30;;;;;;5114517;28;20228;-86
2021/01/11 09:57:38;;;;;;;16.50;9.00;;;0.20;79.90;;;;;;5113102;28;20024;-86
2021/01/11 10:00:14;;;;;;;15.63;9.00;;;0.20;79.80;;;;;;5113408;28;20020;-86
2021/01/11 10:02:47;;;;;;;14.75;9.75;;;0.20;79.30;;;;;;5130652;27;20031;-86
2021/01/11 10:05:12;;;;;;;13.93;8.48;;;0.30;79.70;;;;;;5114868;28;20345;-87
2021/01/11 10:07:39;;;;;;;15.85;10.32;;;0.30;79.10;;;;;;5114868;28;20680;-88
2021/01/11 10:10:06;;;;;;;14.48;9.68;;;0.30;79.40;;;;;;5113676;28;20015;-91
2021/01/11 10:12:32;;;;;;;23.48;15.82;;;0.30;79.10;;;;;;5114510;28;20465;-90
2021/01/11 10:14:58;;;;;;;13.55;8.73;;;0.20;79.70;;;;;;5114952;28;20031;-95
2021/01/11 10:17:31;;;;;;;16.13;10.18;;;0.30;79.70;;;;;;5114953;28;20495;-87
2021/01/11 10:19:59;;;;;;;14.02;9.38;;;0.30;79.40;;;;;;5113128;28;20024;-91
2021/01/11 10:22:26;;;;;;;14.98;9.15;;;0.30;79.80;;;;;;5112789;28;20477;-89
2021/01/11 10:24:51;;;;;;;14.90;9.00;;;0.30;79.30;;;;;;5113476;28;20023;-87
2021/01/11 10:27:18;;;;;;;12.60;8.32;;;0.30;79.70;;;;;;5096172;28;20077;-84
2021/01/11 10:29:43;;;;;;;12.60;7.97;;;0.30;79.80;;;;;;5112879;28;20530;-86
2021/01/11 10:32:09;;;;;;;12.68;8.10;;;0.30;79.50;;;;;;5112558;28;20031;-81
2021/01/11 10:34:35;;;;;;;12.68;8.07;;;0.20;79.40;;;;;;5113911;28;20521;-86
2021/01/11 10:37:04;;;;;;;15.73;8.05;;;0.20;79.50;;;;;;5115432;28;20026;-84
2021/01/11 10:39:30;;;;;;;12.57;8.27;;;0.20;79.30;;;;;;5118120;28;20043;-83
2021/01/11 10:41:58;;;;;;;12.80;8.05;;;0.10;79.30;;;;;;5118088;28;20058;-87
2021/01/11 10:44:27;;;;;;;14.63;8.00;;;0.00;79.50;;;;;;5117430;28;20015;-93
2021/01/11 10:46:59;;;;;;;15.50;9.27;;;0.00;79.90;;;;;;5117737;28;20072;-91
2021/01/11 10:49:27;;;;;;;14.23;7.80;;;0.00;79.90;;;;;;5117634;28;20039;-85
2021/01/11 10:51:55;;;;;;;11.45;7.43;;;-0.10;80.10;;;;;;5117076;28;20067;-90
2021/01/11 10:54:23;;;;;;;13.93;8.30;;;-0.10;80.10;;;;;;5134780;27;20051;-94
2021/01/11 10:56:51;;;;;;;13.10;8.65;;;-0.10;80.20;;;;;;5121703;28;20044;-83
2021/01/11 10:59:17;;;;;;;15.20;8.50;;;0.00;80.70;;;;;;5120270;28;20023;-89
2021/01/11 11:01:43;;;;;;;20.77;11.30;;;0.00;80.70;;;;;;5106784;28;20034;-96
2021/01/11 11:04:14;;;;;;;12.88;7.90;;;0.10;80.80;;;;;;5120060;28;20055;-88
2021/01/11 11:06:39;;;;;;;27.48;12.27;;;0.10;80.80;;;;;;5118704;28;20028;-93
2021/01/11 11:09:05;;;;;;;31.55;17.33;;;0.20;80.60;;;;;;5117030;28;20028;-93
2021/01/11 11:11:31;;;;;;;19.77;12.35;;;0.20;80.20;;;;;;5117651;28;20530;-90
2021/01/11 11:13:57;;;;;;;18.08;11.20;;;0.20;80.20;;;;;;5116472;28;20027;-94
2021/01/11 11:16:22;;;;;;;16.63;11.15;;;0.10;79.60;;;;;;5116560;28;20401;-90
2021/01/11 11:18:48;;;;;;;17.90;10.60;;;0.20;80.30;;;;;;5116266;28;20024;-93
2021/01/11 11:21:15;;;;;;;28.83;16.98;;;0.10;79.70;;;;;;5117080;28;20019;-93
2021/01/11 11:23:42;;;;;;;37.40;22.50;;;0.10;79.80;;;;;;5100848;28;20031;-92
2021/01/11 11:26:11;;;;;;;15.48;10.38;;;0.10;80.00;;;;;;5118130;27;20020;-91
2021/01/11 11:28:38;;;;;;;15.60;10.13;;;0.10;80.00;;;;;;5116681;28;20028;-89
2021/01/11 11:31:05;;;;;;;15.35;9.27;;;0.10;80.30;;;;;;5117354;28;20114;-87
2021/01/11 11:33:30;;;;;;;16.75;10.40;;;0.10;79.90;;;;;;5116230;28;20027;-87
2021/01/11 11:35:56;;;;;;;17.15;10.07;;;0.10;79.60;;;;;;5115819;28;20031;-89
2021/01/11 11:38:23;;;;;;;16.70;10.50;;;0.10;80.20;;;;;;5115852;28;20034;-89
2021/01/11 11:40:51;;;;;;;11.32;7.53;;;0.10;79.80;;;;;;5118470;28;20020;-90
2021/01/11 11:43:17;;;;;;;25.00;14.48;;;0.10;80.30;;;;;;5150634;27;20023;-86
2021/01/11 11:45:44;;;;;;;17.20;10.18;;;0.10;80.20;;;;;;5117072;28;20388;-91
2021/01/11 11:48:14;;;;;;;16.65;11.07;;;0.10;80.40;;;;;;5115151;28;20055;-91
2021/01/11 11:50:40;;;;;;;23.27;14.98;;;0.10;80.30;;;;;;5115884;28;20027;-91
2021/01/11 11:53:06;;;;;;;26.83;16.70;;;0.10;80.20;;;;;;5115780;28;20053;-93
2021/01/11 11:55:33;;;;;;;40.47;24.73;;;0.10;79.40;;;;;;5115686;28;20023;-89
2021/01/11 11:58:00;;;;;;;31.63;17.73;;;0.10;79.30;;;;;;5116498;28;20484;-90
2021/01/11 12:00:26;;;;;;;25.67;16.33;;;0.10;79.60;;;;;;5115869;28;20043;-89
2021/01/11 12:02:52;;;;;;;32.53;20.88;;;0.20;79.80;;;;;;5115471;28;20028;-91
2021/01/11 12:05:18;;;;;;;31.27;19.42;;;0.20;79.50;;;;;;5115343;28;20020;-90
2021/01/11 12:07:49;;;;;;;31.50;18.77;;;0.30;79.20;;;;;;5098783;28;20110;-91
2021/01/11 12:10:15;;;;;;;39.30;21.08;;;0.30;79.40;;;;;;5115599;28;20062;-89
2021/01/11 12:12:45;;;;;;;22.58;13.50;;;0.30;79.00;;;;;;5098460;28;20036;-90
2021/01/11 12:15:11;;;;;;;23.20;13.77;;;0.40;79.30;;;;;;5115400;28;20110;-91
2021/01/11 12:17:37;;;;;;;23.48;13.52;;;0.30;78.50;;;;;;5098016;28;20020;-86
2021/01/11 12:20:04;;;;;;;23.13;14.23;;;0.30;78.70;;;;;;5114957;28;20489;-89
2021/01/11 12:22:30;;;;;;;26.05;15.20;;;0.20;78.60;;;;;;5113996;28;20048;-86
2021/01/11 12:24:57;;;;;;;23.67;13.73;;;0.30;79.10;;;;;;5114634;28;20453;-87
2021/01/11 12:27:23;;;;;;;18.13;10.73;;;0.20;78.20;;;;;;5116271;28;20036;-90
2021/01/11 12:29:49;;;;;;;25.13;15.13;;;0.20;78.40;;;;;;5115048;28;20035;-90
2021/01/11 12:32:16;;;;;;;33.70;18.60;;;0.20;78.90;;;;;;5097933;28;20138;-90
2021/01/11 12:34:43;;;;;;;26.80;13.57;;;0.20;78.90;;;;;;5115316;28;20028;-88
2021/01/11 12:37:18;;;;;;;21.00;12.40;;;0.30;79.10;;;;;;5115070;28;20035;-87
2021/01/11 12:39:45;;;;;;;26.05;14.07;;;0.40;79.20;;;;;;5114445;28;20030;-86
2021/01/11 12:42:11;;;;;;;21.30;12.75;;;0.50;78.40;;;;;;5114596;28;20027;-84
2021/01/11 12:44:38;;;;;;;19.02;11.80;;;0.50;78.20;;;;;;5115074;28;20032;-85